createdAt,value
2022-10-17T00:01:34.549Z,14.31
2022-10-17T00:06:37.382Z,14.29
2022-10-17T00:11:39.508Z,14.25
2022-10-17T00:16:41.148Z,14.24
2022-10-17T00:21:42.760Z,14.17
2022-10-17T00:26:44.434Z,14.14
2022-10-17T00:31:46.196Z,14.07
2022-10-17T00:36:48.502Z,14.05
2022-10-17T00:41:50.616Z,13.98
2022-10-17T00:46:52.217Z,13.98
2022-10-17T00:51:59.381Z,14.07
2022-10-17T00:57:01.512Z,14.05
2022-10-17T01:02:15.487Z,13.98
2022-10-17T01:07:17.259Z,13.96
2022-10-17T01:12:21.208Z,13.97
2022-10-17T01:17:34.095Z,13.95
2022-10-17T01:22:59.314Z,13.98
2022-10-17T01:28:24.149Z,14.01
2022-10-17T01:33:36.944Z,13.99
2022-10-17T01:39:00.894Z,14.02
2022-10-17T01:44:08.637Z,14.05
2022-10-17T01:49:10.836Z,14.03
2022-10-17T01:54:25.169Z,14.05
2022-10-17T01:59:37.781Z,14.05
2022-10-17T02:04:41.547Z,14.02
2022-10-17T02:09:43.270Z,14.00
2022-10-17T02:14:54.504Z,13.98
2022-10-17T02:20:17.676Z,14.02
2022-10-17T02:25:31.212Z,14.03
2022-10-17T02:30:44.598Z,14.00
2022-10-17T02:35:49.882Z,13.95
2022-10-17T02:40:53.136Z,13.87
2022-10-17T02:45:56.141Z,13.80
2022-10-17T02:51:04.556Z,13.78
2022-10-17T02:56:21.388Z,13.78
2022-10-17T03:01:23.254Z,13.79
2022-10-17T03:06:25.205Z,13.80
2022-10-17T03:11:26.824Z,13.76
2022-10-17T03:16:28.638Z,13.75
2022-10-17T03:21:30.799Z,13.74
2022-10-17T03:26:32.841Z,13.74
2022-10-17T03:31:34.654Z,13.80
2022-10-17T03:36:37.316Z,13.78
2022-10-17T03:41:39.181Z,13.78
2022-10-17T03:46:42.144Z,13.77
2022-10-17T03:51:43.767Z,13.73
2022-10-17T03:56:48.926Z,13.72
2022-10-17T04:01:53.310Z,13.70
2022-10-17T04:06:56.334Z,13.72
2022-10-17T04:11:58.080Z,13.68
2022-10-17T04:16:59.771Z,13.67
2022-10-17T04:22:04.089Z,13.64
2022-10-17T04:27:09.260Z,13.65
2022-10-17T04:32:15.205Z,13.65
2022-10-17T04:37:20.251Z,13.66
2022-10-17T04:42:24.453Z,13.63
2022-10-17T04:47:28.357Z,13.63
2022-10-17T04:52:32.081Z,13.63
2022-10-17T04:57:35.654Z,13.60
2022-10-17T05:02:56.339Z,13.64
2022-10-17T05:07:58.174Z,13.66
2022-10-17T05:13:04.270Z,13.65
2022-10-17T05:18:07.875Z,13.60
2022-10-17T05:23:10.564Z,13.59
2022-10-17T05:28:15.814Z,13.57
2022-10-17T05:33:18.198Z,13.50
2022-10-17T05:38:20.342Z,13.51
2022-10-17T05:43:22.984Z,13.52
2022-10-17T05:48:25.343Z,13.51
2022-10-17T05:53:31.058Z,13.55
2022-10-17T05:58:49.775Z,13.53
2022-10-17T06:04:19.014Z,13.56
2022-10-17T06:09:20.771Z,13.58
2022-10-17T06:14:24.842Z,13.67
2022-10-17T06:19:30.650Z,13.73
2022-10-17T06:24:32.338Z,13.82
2022-10-17T06:29:38.073Z,13.92
2022-10-17T06:34:41.099Z,14.02
2022-10-17T06:39:42.849Z,14.10
2022-10-17T06:44:50.830Z,14.17
2022-10-17T06:50:12.689Z,14.28
2022-10-17T06:55:34.464Z,14.42
2022-10-17T07:01:06.872Z,14.55
2022-10-17T07:06:13.195Z,14.67
2022-10-17T07:11:19.294Z,14.77
2022-10-17T07:16:23.492Z,14.90
2022-10-17T07:21:36.612Z,15.04
2022-10-17T07:26:41.434Z,15.19
2022-10-17T07:31:45.546Z,15.34
2022-10-17T07:36:47.546Z,15.43
2022-10-17T07:41:50.857Z,15.56
2022-10-17T07:46:53.514Z,15.68
2022-10-17T07:51:55.276Z,15.83
2022-10-17T07:56:56.878Z,15.95
2022-10-17T08:01:59.420Z,16.09
2022-10-17T08:07:17.925Z,16.20
2022-10-17T08:12:20.453Z,16.37
2022-10-17T08:17:22.080Z,16.49
2022-10-17T08:22:23.754Z,16.65
2022-10-17T08:27:27.634Z,16.73
2022-10-17T08:32:30.370Z,16.93
2022-10-17T08:37:32.785Z,16.97
2022-10-17T08:43:18.776Z,17.08
2022-10-17T08:48:24.069Z,17.16
2022-10-17T08:53:50.700Z,17.31
2022-10-17T08:58:52.604Z,17.37
2022-10-17T09:04:09.323Z,17.50
2022-10-17T09:09:35.145Z,17.53
2022-10-17T09:15:05.887Z,17.60
2022-10-17T09:20:18.588Z,17.66
2022-10-17T09:25:20.911Z,17.67
2022-10-17T09:30:50.553Z,17.59
2022-10-17T09:35:52.346Z,17.62
2022-10-17T09:40:57.221Z,17.73
2022-10-17T09:46:17.535Z,17.86
2022-10-17T09:51:25.644Z,17.95
2022-10-17T09:56:27.948Z,18.08
2022-10-17T10:01:31.211Z,18.17
2022-10-17T10:06:32.820Z,18.21
2022-10-17T10:11:50.903Z,18.33
2022-10-17T10:16:53.832Z,18.41
2022-10-17T10:21:57.845Z,18.56
2022-10-17T10:27:02.332Z,18.69
2022-10-17T10:32:18.117Z,18.74
2022-10-17T10:37:21.826Z,18.90
2022-10-17T10:42:27.689Z,19.02
2022-10-17T10:47:31.158Z,19.15
2022-10-17T10:52:40.525Z,19.29
2022-10-17T10:57:44.320Z,19.43
2022-10-17T11:02:54.854Z,19.61
2022-10-17T11:08:15.243Z,19.63
2022-10-17T11:13:41.210Z,19.77
2022-10-17T11:18:50.629Z,19.91
2022-10-17T11:23:59.527Z,19.99
2022-10-17T11:29:04.222Z,20.16
2022-10-17T11:34:21.072Z,20.26
2022-10-17T11:39:42.458Z,20.44
2022-10-17T11:44:44.850Z,20.59
2022-10-17T11:49:53.549Z,20.59
2022-10-17T11:54:59.528Z,20.67
2022-10-17T12:00:19.895Z,20.95
2022-10-17T12:05:27.877Z,21.09
2022-10-17T12:10:37.719Z,21.31
2022-10-17T12:15:40.986Z,21.49
2022-10-17T12:20:59.428Z,21.73
2022-10-17T12:26:05.430Z,22.01
2022-10-17T12:31:33.572Z,22.08
2022-10-17T12:36:35.605Z,22.21
2022-10-17T12:41:40.104Z,22.23
2022-10-17T12:46:57.711Z,22.32
2022-10-17T12:52:25.797Z,22.33
2022-10-17T12:57:46.892Z,22.34
2022-10-17T13:02:50.332Z,22.26
2022-10-17T13:07:52.426Z,22.28
2022-10-17T13:13:06.270Z,22.32
2022-10-17T13:18:19.691Z,22.20
2022-10-17T13:23:26.315Z,22.27
2022-10-17T13:28:29.171Z,22.27
2022-10-17T13:33:34.917Z,22.23
2022-10-17T13:38:40.304Z,22.19
2022-10-17T13:43:44.346Z,22.05
2022-10-17T13:48:45.949Z,21.93
2022-10-17T13:53:47.609Z,21.77
2022-10-17T13:59:01.523Z,21.66
2022-10-17T14:04:09.527Z,21.54
2022-10-17T14:09:22.814Z,21.45
2022-10-17T14:14:26.040Z,21.39
2022-10-17T14:19:30.204Z,21.26
2022-10-17T14:24:35.794Z,21.18
2022-10-17T14:30:00.937Z,21.15
2022-10-17T14:35:30.182Z,21.05
2022-10-17T14:40:28.185Z,20.95
2022-10-17T14:45:33.863Z,20.79
2022-10-17T14:50:36.259Z,20.68
2022-10-17T14:55:40.190Z,20.59
2022-10-17T15:00:41.785Z,20.47
2022-10-17T15:05:43.394Z,20.31
2022-10-17T15:10:46.366Z,20.15
2022-10-17T15:15:51.842Z,20.00
2022-10-17T15:21:04.500Z,19.88
2022-10-17T15:26:13.823Z,19.71
2022-10-17T15:31:19.503Z,19.61
2022-10-17T15:36:24.358Z,19.50
2022-10-17T15:41:28.913Z,19.38
2022-10-17T15:46:33.193Z,19.28
2022-10-17T15:51:34.825Z,19.14
2022-10-17T15:56:41.612Z,19.05
2022-10-17T16:01:43.243Z,18.95
2022-10-17T16:06:44.872Z,18.72
2022-10-17T16:11:46.555Z,18.64
2022-10-17T16:16:48.148Z,18.54
2022-10-17T16:21:49.756Z,18.34
2022-10-17T16:26:51.443Z,18.22
2022-10-17T16:31:53.034Z,18.21
2022-10-17T16:36:54.628Z,18.03
2022-10-17T16:41:58.541Z,17.91
2022-10-17T16:47:00.538Z,17.84
2022-10-17T16:52:02.178Z,17.75
2022-10-17T16:57:04.409Z,17.63
2022-10-17T17:02:06.361Z,17.53
2022-10-17T17:07:08.228Z,17.43
2022-10-17T17:12:09.909Z,17.44
2022-10-17T17:17:19.518Z,17.31
2022-10-17T17:22:32.182Z,17.53
2022-10-17T17:27:33.848Z,17.62
2022-10-17T17:32:35.536Z,17.46
2022-10-17T17:37:37.208Z,17.41
2022-10-17T17:42:38.837Z,17.40
2022-10-17T17:47:40.526Z,17.35
2022-10-17T17:52:45.466Z,17.26
2022-10-17T17:57:47.191Z,17.18
2022-10-17T18:02:48.826Z,17.11
2022-10-17T18:07:50.410Z,17.05
2022-10-17T18:12:52.291Z,16.88
2022-10-17T18:17:53.947Z,16.70
2022-10-17T18:22:57.331Z,16.64
2022-10-17T18:28:01.387Z,16.52
2022-10-17T18:33:02.973Z,16.40
2022-10-17T18:38:04.581Z,16.27
2022-10-17T18:43:06.303Z,16.18
2022-10-17T18:48:09.986Z,16.14
2022-10-17T18:53:11.586Z,16.02
2022-10-17T18:58:13.201Z,15.99
2022-10-17T19:03:15.236Z,15.97
2022-10-17T19:08:16.843Z,15.92
2022-10-17T19:13:21.541Z,15.84
2022-10-17T19:18:23.423Z,15.82
2022-10-17T19:23:25.022Z,15.81
2022-10-17T19:28:26.952Z,15.78
2022-10-17T19:38:35.514Z,15.69
2022-10-17T19:43:38.765Z,15.67
2022-10-17T19:48:40.740Z,15.61
2022-10-17T19:53:43.121Z,15.52
2022-10-17T19:58:46.562Z,15.46
2022-10-17T20:03:48.765Z,15.40
2022-10-17T20:08:50.830Z,15.31
2022-10-17T20:13:53.432Z,15.19
2022-10-17T20:18:56.934Z,15.12
2022-10-17T20:24:02.662Z,15.19
2022-10-17T20:29:08.647Z,15.13
2022-10-17T20:34:13.725Z,15.12
2022-10-17T20:39:17.259Z,15.09
2022-10-17T20:44:18.900Z,15.10
2022-10-17T20:49:20.972Z,15.04
2022-10-17T20:54:22.726Z,15.02
2022-10-17T20:59:25.788Z,15.09
2022-10-17T21:04:46.834Z,15.03
2022-10-17T21:09:48.862Z,14.96
2022-10-17T21:14:50.472Z,15.07
2022-10-17T21:19:52.073Z,15.13
2022-10-17T21:24:53.735Z,15.28
2022-10-17T21:29:55.607Z,15.27
2022-10-17T21:34:57.321Z,15.21
2022-10-17T21:39:58.925Z,15.11
2022-10-17T21:45:00.549Z,15.03
2022-10-17T21:50:02.186Z,14.96
2022-10-17T21:55:04.032Z,14.93
2022-10-17T22:00:06.014Z,14.90
2022-10-17T22:05:14.122Z,14.90
2022-10-17T22:10:15.839Z,14.81
2022-10-17T22:15:17.467Z,14.75
2022-10-17T22:20:19.081Z,14.81
2022-10-17T22:25:20.694Z,14.84
2022-10-17T22:30:22.418Z,14.78
2022-10-17T22:35:24.010Z,14.75
2022-10-17T22:40:25.659Z,14.65
2022-10-17T22:45:27.491Z,14.60
2022-10-17T22:50:29.288Z,14.64
2022-10-17T22:55:31.005Z,14.69
2022-10-17T23:00:32.754Z,14.67
2022-10-17T23:05:34.371Z,14.62
2022-10-17T23:10:45.717Z,14.56
2022-10-17T23:15:51.627Z,14.52
2022-10-17T23:20:54.004Z,14.53
2022-10-17T23:25:56.434Z,14.47
2022-10-17T23:30:58.018Z,14.50
2022-10-17T23:35:59.619Z,14.42
2022-10-17T23:41:01.197Z,14.41
2022-10-17T23:46:04.142Z,14.43
2022-10-17T23:51:06.840Z,14.41
2022-10-17T23:56:10.149Z,14.47
